Time;durP1;ratioP1;P1;durP2;ratioP2;P2;SDS_P1;SDS_P2;PMS_P1;PMS_P2;Temp;Humidity;BMP_temperature;BMP_pressure;BME280_temperature;BME280_humidity;BME280_pressure;Samples;Min_cycle;Max_cycle;Signal;HPM_P1;HPM_P2
2023/09/28 00:02:09;;;;;;;;;9.33;7.33;;;;;;;;5078194;27;45753;-75
2023/09/28 00:04:34;;;;;;;;;6.67;6.67;;;;;;;;5060365;28;45845;-75
2023/09/28 00:06:59;;;;;;;;;7.00;6.00;;;;;;;;5071113;28;45992;-75
2023/09/28 00:09:24;;;;;;;;;7.00;7.00;;;;;;;;5071425;28;45523;-75
2023/09/28 00:11:50;;;;;;;;;5.00;5.00;;;;;;;;5068189;28;45381;-75
2023/09/28 00:14:15;;;;;;;;;10.33;7.00;;;;;;;;5073707;28;45543;-76
2023/09/28 00:16:40;;;;;;;;;6.33;6.33;;;;;;;;5073382;28;45424;-75
2023/09/28 00:19:08;;;;;;;;;8.67;7.67;;;;;;;;5070309;28;45600;-75
2023/09/28 00:21:33;;;;;;;;;6.67;6.67;;;;;;;;5077103;27;45324;-75
2023/09/28 00:23:59;;;;;;;;;6.00;6.00;;;;;;;;5074793;28;45461;-75
2023/09/28 00:26:24;;;;;;;;;8.00;6.00;;;;;;;;5070947;28;45414;-76
2023/09/28 00:28:50;;;;;;;;;8.00;6.67;;;;;;;;5077904;27;45439;-75
2023/09/28 00:31:17;;;;;;;;;4.00;4.00;;;;;;;;5066757;28;45333;-76
2023/09/28 00:33:43;;;;;;;;;8.33;6.67;;;;;;;;5072580;27;46992;-76
2023/09/28 00:36:08;;;;;;;;;6.00;5.00;;;;;;;;5068786;27;45369;-75
2023/09/28 00:38:33;;;;;;;;;6.00;6.00;;;;;;;;5079748;27;45479;-75
2023/09/28 00:40:58;;;;;;;;;5.67;5.67;;;;;;;;5081583;27;45536;-75
2023/09/28 00:43:27;;;;;;;;;7.00;7.00;;;;;;;;5079668;27;46166;-76
2023/09/28 00:45:52;;;;;;;;;8.00;8.00;;;;;;;;5073162;27;45327;-75
2023/09/28 00:48:17;;;;;;;;;1.00;1.00;;;;;;;;5081102;27;45278;-75
2023/09/28 00:50:42;;;;;;;;;5.67;5.67;;;;;;;;5081223;27;45271;-75
2023/09/28 00:53:08;;;;;;;;;6.67;5.33;;;;;;;;5077340;27;48225;-75
2023/09/28 00:55:36;;;;;;;;;6.50;4.75;;;;;;;;5081375;27;45459;-75
2023/09/28 00:58:02;;;;;;;;;7.00;6.00;;;;;;;;5081502;27;45414;-75
2023/09/28 01:00:29;;;;;;;;;6.00;6.00;;;;;;;;5076186;27;45421;-75
2023/09/28 01:02:58;;;;;;;;;5.67;5.67;;;;;;;;5082158;27;45594;-75
2023/09/28 01:05:27;;;;;;;;;5.67;5.67;;;;;;;;5083710;27;45410;-75
2023/09/28 01:07:52;;;;;;;;;5.00;5.00;;;;;;;;5085953;27;45451;-75
2023/09/28 01:10:21;;;;;;;;;2.33;2.33;;;;;;;;5090534;27;45365;-75
2023/09/28 01:12:47;;;;;;;;;6.00;4.67;;;;;;;;5095879;27;45359;-76
2023/09/28 01:15:12;;;;;;;;;4.67;4.67;;;;;;;;5083217;27;45507;-75
2023/09/28 01:17:38;;;;;;;;;5.67;5.67;;;;;;;;5087697;27;45600;-75
2023/09/28 01:20:37;;;;;;;;;7.33;5.67;;;;;;;;5089773;27;45479;-75
2023/09/28 01:22:56;;;;;;;;;5.33;5.33;;;;;;;;5077910;27;47145;-77
2023/09/28 01:25:21;;;;;;;;;5.00;5.00;;;;;;;;5088737;27;45384;-76
2023/09/28 01:27:46;;;;;;;;;7.33;6.00;;;;;;;;5084574;27;45419;-76
2023/09/28 01:30:12;;;;;;;;;5.33;5.00;;;;;;;;5091687;27;45327;-76
2023/09/28 01:32:37;;;;;;;;;4.00;4.00;;;;;;;;5082661;27;46802;-75
2023/09/28 01:35:04;;;;;;;;;6.33;6.00;;;;;;;;5080155;27;45377;-74
2023/09/28 01:37:33;;;;;;;;;6.33;4.00;;;;;;;;5081691;27;45509;-75
2023/09/28 01:39:58;;;;;;;;;6.33;5.00;;;;;;;;5082305;27;45576;-75
2023/09/28 01:42:23;;;;;;;;;7.33;5.00;;;;;;;;5081895;27;45456;-75
2023/09/28 01:44:49;;;;;;;;;3.75;3.00;;;;;;;;5083477;27;45501;-75
2023/09/28 01:47:14;;;;;;;;;4.00;4.00;;;;;;;;5082697;27;45522;-75
2023/09/28 01:49:39;;;;;;;;;6.67;5.00;;;;;;;;5082199;27;45429;-75
2023/09/28 01:52:04;;;;;;;;;4.00;4.00;;;;;;;;5081611;27;45516;-75
2023/09/28 01:54:29;;;;;;;;;6.00;5.00;;;;;;;;5073692;27;45360;-75
2023/09/28 01:56:54;;;;;;;;;4.00;4.00;;;;;;;;5078553;27;45356;-75
2023/09/28 01:59:20;;;;;;;;;4.25;3.75;;;;;;;;5079721;27;45524;-75
2023/09/28 02:01:45;;;;;;;;;4.50;4.00;;;;;;;;5078174;27;46097;-75
2023/09/28 02:04:10;;;;;;;;;4.33;4.00;;;;;;;;5080138;27;45350;-75
2023/09/28 02:06:35;;;;;;;;;3.00;2.00;;;;;;;;5083780;27;45387;-75
2023/09/28 02:09:02;;;;;;;;;4.33;4.33;;;;;;;;5079478;27;45508;-75
2023/09/28 02:11:28;;;;;;;;;5.25;3.75;;;;;;;;5080501;27;46208;-75
2023/09/28 02:13:53;;;;;;;;;4.00;4.00;;;;;;;;5081996;27;45412;-75
2023/09/28 02:16:18;;;;;;;;;3.75;3.75;;;;;;;;5080567;27;46095;-75
2023/09/28 02:18:43;;;;;;;;;2.00;2.00;;;;;;;;5085562;27;45205;-75
2023/09/28 02:21:13;;;;;;;;;5.50;4.25;;;;;;;;5078927;27;46133;-75
2023/09/28 02:23:38;;;;;;;;;3.00;3.00;;;;;;;;5081667;27;45348;-75
2023/09/28 02:26:05;;;;;;;;;3.67;3.67;;;;;;;;5084941;27;45586;-75
2023/09/28 02:28:31;;;;;;;;;7.00;5.67;;;;;;;;5085597;27;45361;-75
2023/09/28 02:31:02;;;;;;;;;3.67;3.67;;;;;;;;5079288;27;45953;-75
2023/09/28 02:33:29;;;;;;;;;2.75;2.75;;;;;;;;5082587;27;45426;-75
2023/09/28 02:35:54;;;;;;;;;3.67;3.67;;;;;;;;5082693;27;45524;-75
2023/09/28 02:38:19;;;;;;;;;5.00;4.00;;;;;;;;5079750;27;45586;-76
2023/09/28 02:40:44;;;;;;;;;5.33;4.33;;;;;;;;5090571;27;47017;-75
2023/09/28 02:43:10;;;;;;;;;3.00;3.00;;;;;;;;5095732;27;45485;-75
2023/09/28 02:45:35;;;;;;;;;5.67;3.00;;;;;;;;5076299;27;45473;-75
2023/09/28 02:48:00;;;;;;;;;6.00;4.00;;;;;;;;5086204;27;45453;-75
2023/09/28 02:50:26;;;;;;;;;5.33;5.00;;;;;;;;5084847;27;46311;-75
2023/09/28 02:52:52;;;;;;;;;4.00;4.00;;;;;;;;5075787;27;45302;-75
2023/09/28 02:55:17;;;;;;;;;2.67;2.00;;;;;;;;5081372;27;45973;-75
2023/09/28 02:57:43;;;;;;;;;4.00;3.00;;;;;;;;5072244;27;45416;-75
2023/09/28 03:03:04;;;;;;;;;3.33;3.33;;;;;;;;5061250;27;45213;-75
2023/09/28 03:05:29;;;;;;;;;4.00;4.00;;;;;;;;5074626;27;45686;-75
2023/09/28 03:07:54;;;;;;;;;5.67;4.67;;;;;;;;5087425;27;45482;-75
2023/09/28 03:10:20;;;;;;;;;3.00;3.00;;;;;;;;5080973;27;46466;-75
2023/09/28 03:12:51;;;;;;;;;3.00;3.00;;;;;;;;5089330;27;45401;-75
2023/09/28 03:15:16;;;;;;;;;3.00;3.00;;;;;;;;5082840;27;45490;-75
2023/09/28 03:17:41;;;;;;;;;3.00;1.50;;;;;;;;5089707;27;45391;-75
2023/09/28 03:20:15;;;;;;;;;3.00;1.00;;;;;;;;5084485;27;45437;-75
2023/09/28 03:22:47;;;;;;;;;0.00;0.00;;;;;;;;5081756;27;45345;-75
2023/09/28 03:25:17;;;;;;;;;3.00;1.00;;;;;;;;5095763;27;45417;-75
2023/09/28 03:27:43;;;;;;;;;1.00;1.00;;;;;;;;5082133;27;45414;-75
2023/09/28 03:30:11;;;;;;;;;1.75;1.75;;;;;;;;5090539;27;45455;-75
2023/09/28 03:32:40;;;;;;;;;0.50;0.50;;;;;;;;5091104;27;45519;-75
2023/09/28 03:35:12;;;;;;;;;0.00;0.00;;;;;;;;5084893;27;45656;-74
2023/09/28 03:37:37;;;;;;;;;1.50;1.00;;;;;;;;5082202;27;45399;-75
2023/09/28 03:40:12;;;;;;;;;2.00;0.00;;;;;;;;5077435;27;46312;-74
2023/09/28 03:42:38;;;;;;;;;2.00;1.00;;;;;;;;5079118;27;45463;-74
2023/09/28 03:45:04;;;;;;;;;1.50;1.00;;;;;;;;5082166;27;45429;-73
2023/09/28 03:47:31;;;;;;;;;0.50;0.50;;;;;;;;5089021;27;45688;-73
2023/09/28 03:49:56;;;;;;;;;0.00;0.00;;;;;;;;5078064;27;46029;-74
2023/09/28 03:52:22;;;;;;;;;2.25;1.00;;;;;;;;5063856;27;45459;-73
2023/09/28 03:54:47;;;;;;;;;2.00;0.25;;;;;;;;5063507;27;45263;-74
2023/09/28 03:57:12;;;;;;;;;0.75;0.75;;;;;;;;5074514;27;45312;-74
2023/09/28 03:59:38;;;;;;;;;2.25;1.00;;;;;;;;5063841;27;45497;-74
2023/09/28 04:02:04;;;;;;;;;2.50;0.25;;;;;;;;5079222;27;45644;-74
2023/09/28 04:04:29;;;;;;;;;2.75;1.00;;;;;;;;5070281;27;45350;-74
2023/09/28 04:06:54;;;;;;;;;1.50;0.00;;;;;;;;5084582;27;45350;-74
2023/09/28 04:09:19;;;;;;;;;3.00;1.00;;;;;;;;5086630;27;46556;-74
2023/09/28 04:11:44;;;;;;;;;1.00;1.00;;;;;;;;5079836;27;45428;-73
2023/09/28 04:14:10;;;;;;;;;2.25;1.00;;;;;;;;5090617;27;45353;-73
2023/09/28 04:16:36;;;;;;;;;0.00;0.00;;;;;;;;5078925;27;45567;-75
2023/09/28 04:19:01;;;;;;;;;1.00;1.00;;;;;;;;5091265;27;46340;-75
2023/09/28 04:21:27;;;;;;;;;4.00;1.00;;;;;;;;5078879;27;45548;-74
2023/09/28 04:23:52;;;;;;;;;2.00;1.00;;;;;;;;5078292;27;45494;-75
2023/09/28 04:26:17;;;;;;;;;4.67;2.00;;;;;;;;5085610;27;45530;-75
2023/09/28 04:28:43;;;;;;;;;3.00;1.67;;;;;;;;5086509;27;47335;-76
2023/09/28 04:31:08;;;;;;;;;1.25;1.00;;;;;;;;5073849;27;45528;-75
2023/09/28 04:33:33;;;;;;;;;2.00;0.00;;;;;;;;5070962;27;45642;-74
2023/09/28 04:36:00;;;;;;;;;1.33;1.00;;;;;;;;5075891;27;45514;-74
2023/09/28 04:38:25;;;;;;;;;1.25;1.00;;;;;;;;5077616;27;47472;-75
2023/09/28 04:40:50;;;;;;;;;3.25;1.00;;;;;;;;5078114;27;45271;-75
2023/09/28 04:43:16;;;;;;;;;1.00;1.00;;;;;;;;5077237;28;45387;-75
2023/09/28 04:45:41;;;;;;;;;2.00;0.33;;;;;;;;5076039;27;45493;-75
2023/09/28 04:48:06;;;;;;;;;2.75;2.00;;;;;;;;5078573;27;45451;-73
2023/09/28 04:50:31;;;;;;;;;2.00;2.00;;;;;;;;5077512;27;45336;-73
2023/09/28 04:52:58;;;;;;;;;3.33;1.00;;;;;;;;5077905;27;45464;-74
2023/09/28 04:55:23;;;;;;;;;1.00;1.00;;;;;;;;5073174;27;45579;-75
2023/09/28 04:57:49;;;;;;;;;1.00;1.00;;;;;;;;5077417;27;46856;-75
2023/09/28 05:00:16;;;;;;;;;2.50;1.50;;;;;;;;5077689;27;45403;-75
2023/09/28 05:02:42;;;;;;;;;2.33;1.33;;;;;;;;5081621;27;45289;-74
2023/09/28 05:05:07;;;;;;;;;3.00;1.00;;;;;;;;5074309;28;45449;-74
2023/09/28 05:07:33;;;;;;;;;2.25;1.00;;;;;;;;5083132;27;46423;-75
2023/09/28 05:09:59;;;;;;;;;3.00;1.00;;;;;;;;5090486;27;45406;-75
2023/09/28 05:12:24;;;;;;;;;1.00;1.00;;;;;;;;5075994;27;45925;-76
2023/09/28 05:14:49;;;;;;;;;2.00;1.33;;;;;;;;5089617;27;45677;-75
2023/09/28 05:17:14;;;;;;;;;0.75;0.75;;;;;;;;5074224;27;46229;-77
2023/09/28 05:19:40;;;;;;;;;0.00;0.00;;;;;;;;5070303;27;45664;-75
2023/09/28 05:22:07;;;;;;;;;2.75;1.00;;;;;;;;5079045;27;45877;-75
2023/09/28 05:24:32;;;;;;;;;4.00;2.25;;;;;;;;5075217;27;45393;-76
2023/09/28 05:26:57;;;;;;;;;6.33;0.00;;;;;;;;5079296;28;46107;-74
2023/09/28 05:29:23;;;;;;;;;1.00;1.00;;;;;;;;5080179;27;45348;-73
2023/09/28 05:31:48;;;;;;;;;1.00;1.00;;;;;;;;5080726;27;45380;-75
2023/09/28 05:34:13;;;;;;;;;3.00;1.00;;;;;;;;5080105;27;45362;-73
2023/09/28 05:36:38;;;;;;;;;1.00;1.00;;;;;;;;5077781;28;45443;-73
2023/09/28 05:39:03;;;;;;;;;1.00;1.00;;;;;;;;5076732;27;45529;-72
2023/09/28 05:41:29;;;;;;;;;4.00;1.67;;;;;;;;5076578;28;46010;-72
2023/09/28 05:43:54;;;;;;;;;3.00;1.25;;;;;;;;5078708;27;45402;-73
2023/09/28 05:46:19;;;;;;;;;2.00;2.00;;;;;;;;5079834;27;45516;-72
2023/09/28 05:48:45;;;;;;;;;2.00;1.00;;;;;;;;5091449;27;45165;-72
2023/09/28 05:51:10;;;;;;;;;2.75;2.75;;;;;;;;5080140;27;45232;-73
2023/09/28 05:53:36;;;;;;;;;1.00;1.00;;;;;;;;5080668;27;45276;-73
2023/09/28 05:56:03;;;;;;;;;1.00;1.00;;;;;;;;5079367;27;47606;-73
2023/09/28 05:58:28;;;;;;;;;2.67;1.00;;;;;;;;5078563;27;45535;-74
2023/09/28 06:00:54;;;;;;;;;1.75;1.00;;;;;;;;5081812;27;45429;-73
2023/09/28 06:03:19;;;;;;;;;0.75;0.75;;;;;;;;5081281;27;45462;-74
2023/09/28 06:05:44;;;;;;;;;0.50;0.50;;;;;;;;5079439;27;45533;-73
2023/09/28 06:08:09;;;;;;;;;2.00;2.00;;;;;;;;5080319;27;45648;-73
2023/09/28 06:10:37;;;;;;;;;2.75;1.00;;;;;;;;5080477;27;45635;-73
2023/09/28 06:13:02;;;;;;;;;1.00;1.00;;;;;;;;5080186;27;45755;-73
2023/09/28 06:15:28;;;;;;;;;2.00;1.00;;;;;;;;5078262;27;46244;-73
2023/09/28 06:17:53;;;;;;;;;3.33;1.67;;;;;;;;5080049;27;45384;-73
2023/09/28 06:20:18;;;;;;;;;3.75;1.00;;;;;;;;5080146;27;45469;-68
2023/09/28 06:22:43;;;;;;;;;6.00;2.00;;;;;;;;5079068;27;45592;-75
2023/09/28 06:25:08;;;;;;;;;1.67;1.00;;;;;;;;5078279;27;46054;-75
2023/09/28 06:27:34;;;;;;;;;2.75;1.00;;;;;;;;5079686;27;45329;-75
2023/09/28 06:29:59;;;;;;;;;3.75;1.25;;;;;;;;5078045;27;45585;-75
2023/09/28 06:32:24;;;;;;;;;5.50;1.00;;;;;;;;5078362;27;45433;-76
2023/09/28 06:34:51;;;;;;;;;1.00;0.00;;;;;;;;5078111;27;45499;-75
2023/09/28 06:37:17;;;;;;;;;4.00;1.00;;;;;;;;5079879;27;45341;-75
2023/09/28 06:39:42;;;;;;;;;6.00;3.00;;;;;;;;5078379;27;45528;-75
2023/09/28 06:42:07;;;;;;;;;1.00;1.00;;;;;;;;5077821;27;45527;-75
2023/09/28 06:44:34;;;;;;;;;2.00;1.00;;;;;;;;5077601;27;46311;-75
2023/09/28 06:47:00;;;;;;;;;3.00;1.25;;;;;;;;5080428;27;45280;-74
2023/09/28 06:49:26;;;;;;;;;3.50;1.00;;;;;;;;5078308;27;45497;-75
2023/09/28 06:51:51;;;;;;;;;2.67;2.33;;;;;;;;5077303;27;45486;-75
2023/09/28 06:54:16;;;;;;;;;1.25;1.25;;;;;;;;5088942;27;45547;-72
2023/09/28 06:56:41;;;;;;;;;3.00;1.00;;;;;;;;5084858;27;45474;-74
2023/09/28 06:59:07;;;;;;;;;2.00;1.00;;;;;;;;5085370;27;45669;-74
2023/09/28 07:01:33;;;;;;;;;1.25;1.00;;;;;;;;5082438;27;45558;-74
2023/09/28 07:03:58;;;;;;;;;3.00;2.00;;;;;;;;5088452;27;45358;-73
2023/09/28 07:06:24;;;;;;;;;3.00;1.50;;;;;;;;5090639;27;45466;-73
2023/09/28 07:08:49;;;;;;;;;1.75;1.75;;;;;;;;5085381;27;45452;-73
2023/09/28 07:11:15;;;;;;;;;1.00;1.00;;;;;;;;5096765;27;45189;-72
2023/09/28 07:13:40;;;;;;;;;1.67;1.00;;;;;;;;5084032;27;46562;-74
2023/09/28 07:16:07;;;;;;;;;1.75;1.50;;;;;;;;5089929;27;45417;-73
2023/09/28 07:18:33;;;;;;;;;1.00;1.00;;;;;;;;5093075;27;45517;-72
2023/09/28 07:20:58;;;;;;;;;2.00;0.00;;;;;;;;5096701;27;45532;-72
2023/09/28 07:23:23;;;;;;;;;5.00;2.67;;;;;;;;5088578;27;47789;-72
2023/09/28 07:25:50;;;;;;;;;3.00;2.00;;;;;;;;5084484;27;45400;-73
2023/09/28 07:28:16;;;;;;;;;2.00;1.00;;;;;;;;5079702;27;45856;-72
2023/09/28 07:30:41;;;;;;;;;3.50;2.00;;;;;;;;5083763;27;45550;-73
2023/09/28 07:33:07;;;;;;;;;1.50;1.50;;;;;;;;5084305;27;46076;-73
2023/09/28 07:35:32;;;;;;;;;2.50;1.75;;;;;;;;5078004;27;45401;-73
2023/09/28 07:37:57;;;;;;;;;5.75;1.00;;;;;;;;5080067;27;45465;-72
2023/09/28 07:40:24;;;;;;;;;3.00;1.00;;;;;;;;5090769;27;45374;-72
2023/09/28 07:42:50;;;;;;;;;4.75;1.75;;;;;;;;5080962;27;46932;-73
2023/09/28 07:45:15;;;;;;;;;2.00;1.00;;;;;;;;5091415;27;45325;-73
2023/09/28 07:47:40;;;;;;;;;3.25;1.25;;;;;;;;5086663;27;45277;-73
2023/09/28 07:50:06;;;;;;;;;2.50;2.00;;;;;;;;5086819;27;45554;-73
2023/09/28 07:52:31;;;;;;;;;1.00;1.00;;;;;;;;5085591;27;45395;-74
2023/09/28 07:54:57;;;;;;;;;1.75;1.75;;;;;;;;5083062;27;45742;-76
2023/09/28 07:57:22;;;;;;;;;3.00;2.00;;;;;;;;5079302;27;45534;-76
2023/09/28 07:59:47;;;;;;;;;2.50;2.00;;;;;;;;5086291;27;45376;-76
2023/09/28 08:02:12;;;;;;;;;1.00;0.75;;;;;;;;5080675;27;46501;-76
2023/09/28 08:04:38;;;;;;;;;3.00;1.00;;;;;;;;5077047;27;45432;-76
2023/09/28 08:07:04;;;;;;;;;3.75;1.00;;;;;;;;5090616;27;46305;-76
2023/09/28 08:09:30;;;;;;;;;3.25;2.00;;;;;;;;5084364;27;45785;-76
2023/09/28 08:11:55;;;;;;;;;2.00;2.00;;;;;;;;5078597;27;46167;-76
2023/09/28 08:14:21;;;;;;;;;5.50;1.75;;;;;;;;5078778;27;45429;-76
2023/09/28 08:16:46;;;;;;;;;1.25;1.00;;;;;;;;5084845;27;45380;-76
2023/09/28 08:19:12;;;;;;;;;0.50;0.50;;;;;;;;5080209;27;45376;-77
2023/09/28 08:21:38;;;;;;;;;3.75;2.25;;;;;;;;5081215;27;46106;-76
2023/09/28 08:24:04;;;;;;;;;2.50;1.00;;;;;;;;5084909;27;45776;-77
2023/09/28 08:26:30;;;;;;;;;2.00;1.50;;;;;;;;5085479;27;45460;-77
2023/09/28 08:28:57;;;;;;;;;5.25;1.00;;;;;;;;5079544;27;45433;-77
2023/09/28 08:31:22;;;;;;;;;1.00;1.00;;;;;;;;5079410;27;45413;-77
2023/09/28 08:33:48;;;;;;;;;5.00;1.50;;;;;;;;5083435;27;45324;-77
2023/09/28 08:36:14;;;;;;;;;3.25;2.00;;;;;;;;5085297;27;45440;-77
2023/09/28 08:38:39;;;;;;;;;0.75;0.75;;;;;;;;5078238;27;45550;-77
2023/09/28 08:41:05;;;;;;;;;2.50;1.00;;;;;;;;5078100;27;45260;-77
2023/09/28 08:43:34;;;;;;;;;3.25;1.00;;;;;;;;5076824;27;45414;-77
2023/09/28 08:46:01;;;;;;;;;2.00;0.00;;;;;;;;5085330;27;45295;-77
2023/09/28 08:48:27;;;;;;;;;3.75;1.00;;;;;;;;5085492;27;45553;-77
2023/09/28 08:50:55;;;;;;;;;2.00;0.25;;;;;;;;5080363;27;45792;-77
2023/09/28 08:53:22;;;;;;;;;3.00;1.00;;;;;;;;5094709;27;45449;-78
2023/09/28 08:55:47;;;;;;;;;1.75;1.75;;;;;;;;5096496;27;45494;-78
2023/09/28 08:58:13;;;;;;;;;0.75;0.00;;;;;;;;5081144;27;45382;-77
2023/09/28 09:00:39;;;;;;;;;2.25;2.00;;;;;;;;5086397;27;46574;-78
2023/09/28 09:03:06;;;;;;;;;2.00;2.00;;;;;;;;5081483;27;45231;-78
2023/09/28 09:05:31;;;;;;;;;1.25;1.25;;;;;;;;5080744;27;45588;-78
2023/09/28 09:07:58;;;;;;;;;5.75;2.75;;;;;;;;5082165;27;45777;-78
2023/09/28 09:10:26;;;;;;;;;2.25;2.25;;;;;;;;5080870;27;47112;-78
2023/09/28 09:12:52;;;;;;;;;3.50;2.00;;;;;;;;5087741;27;45384;-78
2023/09/28 09:15:17;;;;;;;;;3.00;1.50;;;;;;;;5084846;27;45197;-78
2023/09/28 09:17:43;;;;;;;;;1.00;1.00;;;;;;;;5084746;27;45430;-78
2023/09/28 09:20:09;;;;;;;;;5.25;1.00;;;;;;;;5084167;27;47098;-78
2023/09/28 09:22:35;;;;;;;;;1.50;1.00;;;;;;;;5086897;27;45322;-79
2023/09/28 09:25:00;;;;;;;;;3.00;1.25;;;;;;;;5081639;27;45552;-79
2023/09/28 09:27:29;;;;;;;;;2.75;2.00;;;;;;;;5091796;27;45302;-79
2023/09/28 09:29:58;;;;;;;;;2.00;2.00;;;;;;;;5081131;27;45897;-78
2023/09/28 09:32:27;;;;;;;;;5.50;2.00;;;;;;;;5081696;27;45355;-78
2023/09/28 09:34:53;;;;;;;;;3.00;1.50;;;;;;;;5088843;27;45372;-77
2023/09/28 09:37:19;;;;;;;;;2.75;2.00;;;;;;;;5079051;27;45500;-77
2023/09/28 09:39:45;;;;;;;;;4.00;1.00;;;;;;;;5080754;27;47165;-76
2023/09/28 09:42:10;;;;;;;;;3.75;2.25;;;;;;;;5081399;27;45429;-78
2023/09/28 09:44:35;;;;;;;;;2.00;2.00;;;;;;;;5091042;27;45493;-77
2023/09/28 09:47:02;;;;;;;;;2.00;1.00;;;;;;;;5088612;27;45571;-77
2023/09/28 09:49:27;;;;;;;;;4.50;1.25;;;;;;;;5083227;27;47044;-76
2023/09/28 09:51:53;;;;;;;;;2.25;1.00;;;;;;;;5074456;27;45606;-76
2023/09/28 09:54:19;;;;;;;;;1.00;1.00;;;;;;;;5088660;27;45362;-76
2023/09/28 09:56:48;;;;;;;;;4.00;2.50;;;;;;;;5084422;27;45525;-76
2023/09/28 09:59:16;;;;;;;;;3.00;2.00;;;;;;;;5091145;27;47454;-77
2023/09/28 10:01:47;;;;;;;;;1.75;1.75;;;;;;;;5092935;27;45416;-76
2023/09/28 10:04:16;;;;;;;;;1.00;1.00;;;;;;;;5074721;27;45603;-76
2023/09/28 10:06:43;;;;;;;;;0.00;0.00;;;;;;;;5072186;27;45448;-76
2023/09/28 10:09:10;;;;;;;;;2.75;1.50;;;;;;;;5087040;27;46432;-75
2023/09/28 10:11:38;;;;;;;;;1.25;1.25;;;;;;;;5081982;27;45453;-75
2023/09/28 10:14:04;;;;;;;;;3.25;0.50;;;;;;;;5086038;27;45397;-75
2023/09/28 10:16:29;;;;;;;;;1.00;1.00;;;;;;;;5083232;27;46068;-75
2023/09/28 10:18:55;;;;;;;;;1.75;1.75;;;;;;;;5083929;27;46342;-75
2023/09/28 10:21:20;;;;;;;;;0.75;0.75;;;;;;;;5087097;27;45496;-74
2023/09/28 10:23:47;;;;;;;;;0.75;0.75;;;;;;;;5090962;27;45325;-74
2023/09/28 10:26:16;;;;;;;;;1.75;1.75;;;;;;;;5087534;27;45341;-74
2023/09/28 10:28:59;;;;;;;;;4.25;1.75;;;;;;;;5086462;27;45390;-75
2023/09/28 10:31:28;;;;;;;;;3.00;1.75;;;;;;;;5084828;27;45626;-75
2023/09/28 10:34:00;;;;;;;;;6.50;1.25;;;;;;;;5090216;27;45584;-75
2023/09/28 10:36:26;;;;;;;;;1.00;0.00;;;;;;;;5075956;27;45507;-75
2023/09/28 10:39:13;;;;;;;;;2.25;1.00;;;;;;;;5083795;27;45980;-75
2023/09/28 10:41:39;;;;;;;;;3.00;1.25;;;;;;;;5089787;27;45522;-76
2023/09/28 10:44:17;;;;;;;;;2.00;1.75;;;;;;;;5089886;27;45573;-75
2023/09/28 10:46:44;;;;;;;;;3.50;2.50;;;;;;;;5083133;27;45557;-76
2023/09/28 10:49:12;;;;;;;;;1.75;1.75;;;;;;;;5081433;27;45555;-76
2023/09/28 10:51:37;;;;;;;;;3.80;1.80;;;;;;;;5084556;27;45378;-75
2023/09/28 10:54:06;;;;;;;;;1.00;1.00;;;;;;;;5094427;27;45368;-75
2023/09/28 10:56:33;;;;;;;;;5.50;1.00;;;;;;;;5090825;27;45437;-75
2023/09/28 10:59:00;;;;;;;;;2.00;0.25;;;;;;;;5087655;27;46058;-75
2023/09/28 11:01:25;;;;;;;;;0.20;0.20;;;;;;;;5097806;27;45286;-74
2023/09/28 11:03:52;;;;;;;;;3.50;2.00;;;;;;;;5084083;27;45703;-74
2023/09/28 11:06:18;;;;;;;;;1.00;1.00;;;;;;;;5097376;27;45544;-74
2023/09/28 11:08:43;;;;;;;;;5.25;1.00;;;;;;;;5076737;27;45382;-75
2023/09/28 11:11:08;;;;;;;;;1.00;1.00;;;;;;;;5093437;27;45368;-75
2023/09/28 11:13:34;;;;;;;;;1.75;1.75;;;;;;;;5079762;27;45495;-77
2023/09/28 11:15:59;;;;;;;;;5.00;1.75;;;;;;;;5086441;27;45283;-75
2023/09/28 11:18:25;;;;;;;;;2.75;2.00;;;;;;;;5083726;27;45768;-76
2023/09/28 11:20:51;;;;;;;;;1.00;1.00;;;;;;;;5094293;27;45255;-76
2023/09/28 11:23:17;;;;;;;;;0.75;0.50;;;;;;;;5088030;27;45370;-77
2023/09/28 11:25:42;;;;;;;;;3.00;1.00;;;;;;;;5092651;27;45368;-77
2023/09/28 11:28:09;;;;;;;;;2.75;1.00;;;;;;;;5087685;27;45837;-76
2023/09/28 11:30:34;;;;;;;;;3.50;2.00;;;;;;;;5094311;27;45319;-76
2023/09/28 11:33:02;;;;;;;;;2.00;1.00;;;;;;;;5088335;27;45210;-75
2023/09/28 11:35:29;;;;;;;;;2.75;1.50;;;;;;;;5094242;27;45402;-75
2023/09/28 11:37:57;;;;;;;;;1.75;0.25;;;;;;;;5086867;27;46236;-75
2023/09/28 11:40:23;;;;;;;;;1.00;1.00;;;;;;;;5091855;27;45348;-75
2023/09/28 11:42:48;;;;;;;;;2.00;2.00;;;;;;;;5088657;27;45292;-75
2023/09/28 11:45:14;;;;;;;;;1.25;1.00;;;;;;;;5092319;27;45435;-75
2023/09/28 11:47:39;;;;;;;;;2.00;1.00;;;;;;;;5088556;27;45941;-76
2023/09/28 11:50:07;;;;;;;;;1.75;1.00;;;;;;;;5092385;27;45382;-77
2023/09/28 11:52:32;;;;;;;;;1.25;1.00;;;;;;;;5081187;27;45252;-76
2023/09/28 11:54:58;;;;;;;;;1.50;1.50;;;;;;;;5090502;27;45535;-75
2023/09/28 11:57:23;;;;;;;;;3.00;1.00;;;;;;;;5089762;27;45294;-76
2023/09/28 11:59:48;;;;;;;;;1.75;1.75;;;;;;;;5095538;27;45469;-77
2023/09/28 12:02:13;;;;;;;;;1.25;1.00;;;;;;;;5082990;27;45433;-75
2023/09/28 12:04:38;;;;;;;;;1.00;1.00;;;;;;;;5085912;27;45753;-75
2023/09/28 12:07:04;;;;;;;;;2.75;1.00;;;;;;;;5075754;27;45493;-76
2023/09/28 12:09:31;;;;;;;;;1.00;1.00;;;;;;;;5085872;27;45313;-77
2023/09/28 12:11:56;;;;;;;;;3.00;1.75;;;;;;;;5088238;27;45479;-76
2023/09/28 12:14:21;;;;;;;;;3.00;1.00;;;;;;;;5086695;27;45340;-76
2023/09/28 12:16:47;;;;;;;;;0.00;0.00;;;;;;;;5078676;28;46025;-76
2023/09/28 12:19:12;;;;;;;;;0.00;0.00;;;;;;;;5088860;27;45480;-78
2023/09/28 12:21:37;;;;;;;;;1.00;1.00;;;;;;;;5087882;27;45428;-76
2023/09/28 12:24:03;;;;;;;;;2.00;0.25;;;;;;;;5093435;27;45378;-76
2023/09/28 12:26:28;;;;;;;;;1.25;1.25;;;;;;;;5085531;27;46030;-76
2023/09/28 12:28:53;;;;;;;;;0.00;0.00;;;;;;;;5091941;27;45347;-76
2023/09/28 12:31:19;;;;;;;;;2.50;1.00;;;;;;;;5088735;27;45558;-76
2023/09/28 12:33:45;;;;;;;;;1.00;0.00;;;;;;;;5089618;27;45366;-76
2023/09/28 12:36:10;;;;;;;;;2.75;1.00;;;;;;;;5088103;27;46051;-76
2023/09/28 12:38:36;;;;;;;;;1.00;1.00;;;;;;;;5096175;27;45344;-76
2023/09/28 12:41:03;;;;;;;;;2.50;1.00;;;;;;;;5090887;27;45282;-76
2023/09/28 12:43:29;;;;;;;;;1.00;1.00;;;;;;;;5094269;27;45434;-75
2023/09/28 12:45:54;;;;;;;;;1.75;1.00;;;;;;;;5088579;27;46235;-76
2023/09/28 12:48:20;;;;;;;;;2.00;0.00;;;;;;;;5095591;27;45380;-76
2023/09/28 12:50:46;;;;;;;;;0.00;0.00;;;;;;;;5085024;27;45444;-76
2023/09/28 12:53:12;;;;;;;;;4.00;0.25;;;;;;;;5076494;27;45494;-76
2023/09/28 12:55:37;;;;;;;;;1.00;1.00;;;;;;;;5093206;27;45425;-77
2023/09/28 12:58:03;;;;;;;;;1.00;1.00;;;;;;;;5098686;27;45306;-78
2023/09/28 13:00:29;;;;;;;;;2.50;1.00;;;;;;;;5089536;27;45291;-78
2023/09/28 13:02:54;;;;;;;;;0.50;0.50;;;;;;;;5093787;27;45278;-79
2023/09/28 13:05:19;;;;;;;;;1.00;1.00;;;;;;;;5078668;27;45971;-77
2023/09/28 13:07:44;;;;;;;;;1.50;0.25;;;;;;;;5093613;27;45216;-78
2023/09/28 13:10:14;;;;;;;;;3.50;1.25;;;;;;;;5086259;27;45408;-77
2023/09/28 13:12:41;;;;;;;;;1.00;1.00;;;;;;;;5095676;27;45297;-77
2023/09/28 13:15:07;;;;;;;;;1.50;0.00;;;;;;;;5091760;27;47124;-78
2023/09/28 13:17:32;;;;;;;;;1.75;0.00;;;;;;;;5092924;27;45558;-78
2023/09/28 13:19:58;;;;;;;;;0.75;0.75;;;;;;;;5089955;27;45213;-77
2023/09/28 13:22:23;;;;;;;;;1.00;1.00;;;;;;;;5095462;27;45512;-77
2023/09/28 13:24:49;;;;;;;;;1.00;0.00;;;;;;;;5091283;27;45355;-78
2023/09/28 13:27:16;;;;;;;;;2.00;1.00;;;;;;;;5087056;27;45306;-77
2023/09/28 13:29:42;;;;;;;;;1.75;1.00;;;;;;;;5091077;27;45231;-77
2023/09/28 13:32:12;;;;;;;;;1.50;0.50;;;;;;;;5095710;27;45596;-78
2023/09/28 13:34:37;;;;;;;;;1.00;1.00;;;;;;;;5091110;27;46190;-78
2023/09/28 13:37:04;;;;;;;;;2.00;0.75;;;;;;;;5095568;27;45395;-78
2023/09/28 13:39:32;;;;;;;;;6.00;1.25;;;;;;;;5089500;27;45443;-77
2023/09/28 13:42:01;;;;;;;;;1.00;1.00;;;;;;;;5096075;27;45343;-70
2023/09/28 13:44:30;;;;;;;;;2.00;1.00;;;;;;;;5078616;28;47014;-76
2023/09/28 13:46:56;;;;;;;;;1.00;1.00;;;;;;;;5081102;28;45228;-77
2023/09/28 13:49:23;;;;;;;;;1.25;0.00;;;;;;;;5080549;27;45254;-78
2023/09/28 13:51:48;;;;;;;;;1.00;1.00;;;;;;;;5081011;28;45506;-78
2023/09/28 13:54:14;;;;;;;;;1.00;1.00;;;;;;;;5080293;27;45374;-78
2023/09/28 13:56:40;;;;;;;;;2.25;1.25;;;;;;;;5080711;27;45453;-78
2023/09/28 13:59:09;;;;;;;;;1.00;1.00;;;;;;;;5080572;27;45224;-77
2023/09/28 14:01:36;;;;;;;;;2.25;1.00;;;;;;;;5081260;27;45464;-78
2023/09/28 14:04:01;;;;;;;;;0.00;0.00;;;;;;;;5079966;28;47021;-77
2023/09/28 14:06:26;;;;;;;;;1.00;1.00;;;;;;;;5080742;28;45163;-77
2023/09/28 14:08:56;;;;;;;;;0.25;0.25;;;;;;;;5061100;28;45315;-78
2023/09/28 14:11:22;;;;;;;;;1.00;0.25;;;;;;;;5060631;28;45350;-78
2023/09/28 14:13:48;;;;;;;;;0.00;0.00;;;;;;;;5080766;27;45449;-77
2023/09/28 14:16:15;;;;;;;;;2.50;0.00;;;;;;;;5079647;28;45263;-77
2023/09/28 14:18:40;;;;;;;;;1.00;0.00;;;;;;;;5080230;27;45482;-77
2023/09/28 14:21:06;;;;;;;;;0.00;0.00;;;;;;;;5080507;27;45647;-77
2023/09/28 14:23:31;;;;;;;;;1.00;1.00;;;;;;;;5080251;28;45977;-77
2023/09/28 14:25:56;;;;;;;;;1.75;0.75;;;;;;;;5080463;28;45329;-77
2023/09/28 14:28:21;;;;;;;;;4.25;1.00;;;;;;;;5080149;27;45330;-77
2023/09/28 14:30:47;;;;;;;;;2.00;0.25;;;;;;;;5080532;27;45542;-77
2023/09/28 14:33:13;;;;;;;;;0.50;0.00;;;;;;;;5079107;28;47192;-78
2023/09/28 14:35:40;;;;;;;;;1.00;1.00;;;;;;;;5079153;28;45425;-78
2023/09/28 14:38:05;;;;;;;;;1.25;1.00;;;;;;;;5073844;28;45372;-78
2023/09/28 14:40:30;;;;;;;;;5.00;1.50;;;;;;;;5071853;27;46311;-78